createdAt,value
2018-12-22T00:00:36.482Z,86.24
2018-12-22T00:05:41.528Z,86.19
2018-12-22T00:10:46.467Z,86.09
2018-12-22T00:15:51.244Z,86.48
2018-12-22T00:20:56.613Z,85.94
2018-12-22T00:31:30.383Z,86.25
2018-12-22T00:36:35.214Z,86.50
2018-12-22T00:41:39.989Z,86.39
2018-12-22T00:46:44.854Z,86.02
2018-12-22T00:51:49.886Z,85.88
2018-12-22T00:56:54.862Z,86.13
2018-12-22T01:02:20.972Z,86.15
2018-12-22T01:13:03.747Z,86.24
2018-12-22T01:18:08.644Z,85.96
2018-12-22T01:23:13.437Z,86.14
2018-12-22T01:28:18.270Z,85.87
2018-12-22T01:33:23.246Z,85.75
2018-12-22T01:38:28.076Z,85.63
2018-12-22T01:43:32.946Z,85.85
2018-12-22T01:54:16.116Z,86.06
2018-12-22T01:59:20.907Z,85.84
2018-12-22T02:04:25.628Z,86.13
2018-12-22T02:09:30.377Z,86.26
2018-12-22T02:14:35.327Z,86.12
2018-12-22T02:19:40.153Z,86.17
2018-12-22T02:24:45.029Z,86.00
2018-12-22T02:29:49.986Z,86.50
2018-12-22T02:34:54.855Z,86.22
2018-12-22T02:39:59.815Z,86.63
2018-12-22T02:45:05.192Z,86.82
2018-12-22T02:50:11.496Z,86.77
2018-12-22T03:00:50.867Z,86.64
2018-12-22T03:05:55.782Z,86.91
2018-12-22T03:11:00.652Z,86.65
2018-12-22T03:16:05.597Z,86.35
2018-12-22T03:21:10.541Z,86.73
2018-12-22T03:26:15.472Z,86.47
2018-12-22T03:31:20.238Z,86.47
2018-12-22T03:41:53.807Z,86.91
2018-12-22T03:46:58.719Z,86.85
2018-12-22T03:52:03.757Z,86.33
2018-12-22T03:57:08.511Z,86.90
2018-12-22T04:02:13.447Z,86.69
2018-12-22T04:07:18.312Z,86.80
2018-12-22T04:12:23.157Z,86.50
2018-12-22T04:17:28.128Z,86.73
2018-12-22T04:22:33.056Z,86.56
2018-12-22T04:27:37.927Z,86.37
2018-12-22T04:32:42.752Z,86.38
2018-12-22T04:37:47.577Z,86.19
2018-12-22T04:42:52.372Z,86.44
2018-12-22T04:47:57.247Z,87.02
2018-12-22T04:53:02.031Z,86.74
2018-12-22T04:58:06.850Z,86.78
2018-12-22T05:03:11.764Z,86.79
2018-12-22T05:08:16.666Z,86.92
2018-12-22T05:13:21.632Z,86.22
2018-12-22T05:18:26.600Z,86.61
2018-12-22T05:23:31.340Z,86.72
2018-12-22T05:28:36.406Z,86.27
2018-12-22T05:33:41.305Z,86.57
2018-12-22T05:38:46.182Z,86.39
2018-12-22T05:43:51.036Z,86.77
2018-12-22T05:48:56.107Z,86.67
2018-12-22T05:54:00.980Z,86.42
2018-12-22T06:04:33.579Z,86.49
2018-12-22T06:09:38.472Z,86.33
2018-12-22T06:14:43.534Z,86.15
2018-12-22T06:19:48.275Z,86.07
2018-12-22T06:24:53.175Z,86.30
2018-12-22T06:29:58.085Z,86.19
2018-12-22T06:35:03.009Z,86.39
2018-12-22T06:40:08.426Z,86.50
2018-12-22T06:45:13.235Z,86.23
2018-12-22T06:50:18.124Z,86.63
2018-12-22T06:55:23.096Z,86.33
2018-12-22T07:00:28.314Z,86.71
2018-12-22T07:05:33.185Z,86.67
2018-12-22T07:10:37.835Z,86.62
2018-12-22T07:15:42.794Z,86.41
2018-12-22T07:20:47.684Z,87.15
2018-12-22T07:25:52.610Z,86.50
2018-12-22T07:30:57.385Z,86.06
2018-12-22T07:36:02.260Z,86.22
2018-12-22T07:41:07.219Z,86.23
2018-12-22T07:46:12.039Z,86.45
2018-12-22T07:51:16.904Z,86.44
2018-12-22T07:56:21.669Z,86.34
2018-12-22T08:01:26.786Z,86.35
2018-12-22T08:06:31.884Z,86.34
2018-12-22T08:11:36.750Z,86.89
2018-12-22T08:16:41.655Z,86.26
2018-12-22T08:21:46.665Z,86.28
2018-12-22T08:26:51.485Z,86.23
2018-12-22T08:31:56.224Z,86.68
2018-12-22T08:37:01.005Z,86.64
2018-12-22T08:42:05.915Z,86.85
2018-12-22T08:47:10.760Z,86.30
2018-12-22T08:52:15.669Z,86.66
2018-12-22T08:57:20.577Z,86.27
2018-12-22T09:02:25.941Z,86.15
2018-12-22T09:07:30.897Z,86.22
2018-12-22T09:12:35.639Z,86.38
2018-12-22T09:17:40.434Z,86.38
2018-12-22T09:22:45.259Z,86.23
2018-12-22T09:27:50.145Z,86.74
2018-12-22T09:32:54.996Z,86.53
2018-12-22T09:37:59.892Z,86.16
2018-12-22T09:43:04.849Z,86.23
2018-12-22T09:48:09.799Z,85.99
2018-12-22T09:53:14.649Z,86.10
2018-12-22T09:58:19.487Z,86.06
2018-12-22T10:03:24.373Z,85.74
2018-12-22T10:08:29.269Z,85.42
2018-12-22T10:13:34.133Z,85.39
2018-12-22T10:18:39.029Z,84.85
2018-12-22T10:23:43.908Z,84.71
2018-12-22T10:28:48.469Z,84.36
2018-12-22T10:33:53.096Z,84.51
2018-12-22T10:38:57.933Z,85.06
2018-12-22T10:44:02.750Z,84.89
2018-12-22T10:49:07.538Z,84.83
2018-12-22T10:54:12.428Z,84.96
2018-12-22T10:59:17.244Z,84.57
2018-12-22T11:04:22.018Z,84.37
2018-12-22T11:09:27.255Z,84.07
2018-12-22T11:14:32.093Z,84.16
2018-12-22T11:19:36.974Z,83.45
2018-12-22T11:24:42.233Z,83.23
2018-12-22T11:29:47.183Z,82.51
2018-12-22T11:34:51.968Z,82.10
2018-12-22T11:39:56.958Z,82.25
2018-12-22T11:45:01.560Z,82.00
2018-12-22T11:50:07.770Z,81.78
2018-12-22T11:55:12.668Z,82.09
2018-12-22T12:00:17.586Z,83.02
2018-12-22T12:05:22.373Z,82.98
2018-12-22T12:10:27.193Z,82.92
2018-12-22T12:15:39.883Z,82.39
2018-12-22T12:20:44.764Z,82.89
2018-12-22T12:25:49.673Z,82.74
2018-12-22T12:30:54.463Z,83.15
2018-12-22T12:35:59.324Z,83.06
2018-12-22T12:41:04.199Z,82.80
2018-12-22T12:46:08.979Z,82.40
2018-12-22T12:51:13.840Z,82.68
2018-12-22T12:56:18.709Z,82.84
2018-12-22T13:01:24.469Z,82.61
2018-12-22T13:07:32.319Z,82.33
2018-12-22T13:12:44.066Z,82.70
2018-12-22T13:17:48.954Z,82.79
2018-12-22T13:22:53.820Z,83.11
2018-12-22T13:27:58.594Z,82.78
2018-12-22T13:33:03.416Z,82.59
2018-12-22T13:38:08.320Z,82.90
2018-12-22T13:43:13.209Z,82.40
2018-12-22T13:48:18.255Z,82.84
2018-12-22T13:53:23.179Z,82.63
2018-12-22T13:58:28.385Z,83.07
2018-12-22T14:03:36.864Z,82.95
2018-12-22T14:08:41.769Z,83.47
2018-12-22T14:13:46.539Z,83.40
2018-12-22T14:18:56.997Z,83.24
2018-12-22T14:24:10.239Z,83.63
2018-12-22T14:29:15.073Z,83.64
2018-12-22T14:34:24.959Z,83.89
2018-12-22T14:39:29.811Z,83.83
2018-12-22T14:44:34.773Z,84.23
2018-12-22T14:49:39.599Z,84.15
2018-12-22T14:54:44.450Z,84.39
2018-12-22T14:59:49.454Z,84.45
2018-12-22T15:04:54.304Z,84.36
2018-12-22T15:09:59.074Z,84.87
2018-12-22T15:15:04.035Z,84.60
2018-12-22T15:20:12.874Z,84.57
2018-12-22T15:25:17.854Z,84.65
2018-12-22T15:30:22.855Z,84.31
2018-12-22T15:35:27.704Z,84.41
2018-12-22T15:40:32.583Z,84.59
2018-12-22T15:45:37.403Z,84.64
2018-12-22T15:50:42.968Z,84.82
2018-12-22T15:55:47.891Z,84.88
2018-12-22T16:00:52.688Z,84.97
2018-12-22T16:05:57.507Z,84.79
2018-12-22T16:11:02.294Z,84.33
2018-12-22T16:16:07.708Z,84.46
2018-12-22T16:32:09.354Z,84.57
2018-12-22T16:37:14.343Z,84.97
2018-12-22T16:42:19.189Z,85.08
2018-12-22T16:47:23.853Z,85.00
2018-12-22T16:52:28.663Z,84.58
2018-12-22T16:57:33.553Z,84.37
2018-12-22T17:02:47.532Z,84.28
2018-12-22T17:07:52.478Z,83.85
2018-12-22T17:12:57.366Z,83.81
2018-12-22T17:18:02.260Z,83.86
2018-12-22T17:23:14.391Z,83.82
2018-12-22T17:28:19.273Z,84.11
2018-12-22T17:33:24.290Z,83.73
2018-12-22T17:38:29.709Z,83.77
2018-12-22T17:43:34.964Z,83.59
2018-12-22T17:48:39.844Z,83.20
2018-12-22T17:53:44.623Z,83.25
2018-12-22T17:58:49.520Z,83.25
2018-12-22T18:03:54.460Z,83.51
2018-12-22T18:08:59.405Z,83.41
2018-12-22T18:14:04.280Z,83.76
2018-12-22T18:19:09.225Z,84.57
2018-12-22T18:24:14.100Z,84.29
2018-12-22T18:29:18.951Z,84.41
2018-12-22T18:34:23.855Z,84.59
2018-12-22T18:39:28.636Z,84.79
2018-12-22T18:44:33.499Z,84.84
2018-12-22T18:49:38.439Z,85.54
2018-12-22T18:54:43.315Z,85.69
2018-12-22T18:59:51.300Z,85.79
2018-12-22T19:04:56.175Z,86.31
2018-12-22T19:10:01.020Z,86.31
2018-12-22T19:15:06.045Z,86.51
2018-12-22T19:20:15.280Z,86.32
2018-12-22T19:25:20.149Z,86.57
2018-12-22T19:30:25.113Z,86.38
2018-12-22T19:35:30.094Z,86.89
2018-12-22T19:40:34.945Z,86.87
2018-12-22T19:45:39.835Z,86.84
2018-12-22T19:50:44.760Z,86.82
2018-12-22T19:55:49.694Z,87.03
2018-12-22T20:00:54.529Z,87.22
2018-12-22T20:05:59.449Z,86.74
2018-12-22T20:11:04.426Z,87.22
2018-12-22T20:16:09.384Z,87.32
2018-12-22T20:21:14.401Z,87.07
2018-12-22T20:26:19.253Z,87.23
2018-12-22T20:31:25.024Z,87.24
2018-12-22T20:36:30.029Z,87.29
2018-12-22T20:41:35.028Z,87.46
2018-12-22T20:46:39.789Z,87.77
2018-12-22T20:51:44.749Z,87.52
2018-12-22T20:56:49.799Z,87.84
2018-12-22T21:01:54.710Z,87.68
2018-12-22T21:06:59.769Z,87.59
2018-12-22T21:12:04.794Z,87.63
2018-12-22T21:17:09.634Z,87.71
2018-12-22T21:22:14.414Z,87.77
2018-12-22T21:27:19.424Z,87.97
2018-12-22T21:32:24.274Z,88.36
2018-12-22T21:37:29.380Z,88.39
2018-12-22T21:42:34.309Z,88.22
2018-12-22T21:47:39.252Z,88.66
2018-12-22T21:52:44.304Z,88.36
2018-12-22T21:57:50.199Z,88.45
2018-12-22T22:02:55.034Z,88.40
2018-12-22T22:07:59.899Z,88.44
2018-12-22T22:13:04.915Z,88.40
2018-12-22T22:18:09.710Z,88.56
2018-12-22T22:23:18.878Z,88.48
2018-12-22T22:28:21.485Z,88.05
2018-12-22T22:33:27.561Z,88.01
2018-12-22T22:38:32.756Z,88.16
2018-12-22T22:43:37.640Z,88.02
2018-12-22T22:48:42.361Z,88.16
2018-12-22T22:53:47.141Z,87.92
2018-12-22T22:58:52.131Z,88.09
2018-12-22T23:03:57.070Z,88.31
2018-12-22T23:09:02.113Z,88.34
2018-12-22T23:14:07.104Z,88.85
2018-12-22T23:19:12.094Z,88.38
2018-12-22T23:24:16.888Z,88.70
2018-12-22T23:29:21.739Z,88.47
2018-12-22T23:34:27.579Z,88.75
2018-12-22T23:39:32.639Z,88.46
2018-12-22T23:44:37.504Z,88.39
2018-12-22T23:49:42.239Z,88.34
2018-12-22T23:54:47.174Z,88.40
2018-12-22T23:59:52.054Z,88.81
